createdAt,value
2023-03-29T00:02:07.682Z,5.07
2023-03-29T00:06:10.180Z,5.30
2023-03-29T00:10:14.450Z,5.27
2023-03-29T00:14:18.667Z,5.40
2023-03-29T00:18:20.507Z,5.03
2023-03-29T00:22:21.981Z,5.20
2023-03-29T00:26:23.391Z,5.50
2023-03-29T00:30:27.357Z,4.70
2023-03-29T00:34:30.836Z,4.83
2023-03-29T00:38:32.874Z,5.37
2023-03-29T00:42:34.194Z,5.67
2023-03-29T00:46:35.897Z,5.47
2023-03-29T00:50:49.822Z,5.10
2023-03-29T00:54:56.015Z,5.10
2023-03-29T00:59:05.826Z,5.00
2023-03-29T01:03:24.524Z,5.03
2023-03-29T01:07:32.083Z,4.60
2023-03-29T01:11:44.103Z,4.67
2023-03-29T01:15:46.841Z,4.63
2023-03-29T01:19:58.127Z,5.20
2023-03-29T01:24:26.577Z,5.30
2023-03-29T01:28:40.746Z,5.20
2023-03-29T01:32:51.978Z,5.23
2023-03-29T01:37:05.750Z,4.73
2023-03-29T01:41:07.954Z,5.27
2023-03-29T01:45:27.160Z,5.33
2023-03-29T01:49:37.131Z,5.40
2023-03-29T01:53:38.548Z,4.90
2023-03-29T01:57:42.766Z,4.50
2023-03-29T02:01:53.929Z,5.30
2023-03-29T02:05:57.747Z,4.90
2023-03-29T02:09:59.637Z,5.03
2023-03-29T02:14:01.286Z,5.43
2023-03-29T02:18:03.891Z,5.60
2023-03-29T02:22:10.128Z,5.53
2023-03-29T02:26:14.369Z,5.33
2023-03-29T02:30:18.621Z,4.70
2023-03-29T02:34:29.582Z,4.83
2023-03-29T02:38:31.911Z,5.10
2023-03-29T02:42:34.548Z,5.53
2023-03-29T02:46:37.813Z,5.60
2023-03-29T02:50:42.453Z,4.90
2023-03-29T02:54:47.493Z,5.50
2023-03-29T02:58:48.816Z,5.33
2023-03-29T03:02:50.910Z,5.03
2023-03-29T03:06:52.632Z,5.30
2023-03-29T03:10:54.145Z,5.00
2023-03-29T03:14:55.521Z,5.20
2023-03-29T03:18:56.864Z,5.13
2023-03-29T03:22:58.443Z,4.93
2023-03-29T03:27:00.047Z,4.90
2023-03-29T03:31:01.488Z,4.80
2023-03-29T03:35:05.506Z,4.20
2023-03-29T03:39:07.239Z,4.70
2023-03-29T03:43:09.037Z,4.27
2023-03-29T03:47:11.089Z,4.97
2023-03-29T03:51:13.031Z,5.63
2023-03-29T03:55:14.599Z,4.80
2023-03-29T03:59:16.050Z,4.80
2023-03-29T04:03:18.132Z,5.37
2023-03-29T04:07:19.659Z,4.90
2023-03-29T04:11:20.989Z,4.83
2023-03-29T04:15:22.493Z,4.90
2023-03-29T04:19:23.995Z,4.67
2023-03-29T04:23:25.342Z,5.00
2023-03-29T04:27:26.743Z,4.90
2023-03-29T04:31:28.147Z,5.20
2023-03-29T04:35:29.942Z,4.80
2023-03-29T04:39:32.121Z,5.13
2023-03-29T04:43:34.480Z,4.77
2023-03-29T04:47:36.586Z,5.40
2023-03-29T04:51:38.029Z,5.10
2023-03-29T04:55:39.443Z,5.17
2023-03-29T04:59:40.792Z,4.47
2023-03-29T05:03:42.432Z,4.90
2023-03-29T05:07:44.347Z,4.97
2023-03-29T05:11:45.723Z,5.17
2023-03-29T05:15:47.690Z,4.87
2023-03-29T05:19:49.297Z,4.83
2023-03-29T05:23:50.865Z,4.60
2023-03-29T05:27:53.048Z,4.97
2023-03-29T05:31:54.771Z,4.43
2023-03-29T05:36:08.077Z,4.80
2023-03-29T05:40:10.204Z,4.70
2023-03-29T05:44:11.681Z,4.77
2023-03-29T05:48:13.405Z,4.97
2023-03-29T05:52:15.254Z,4.60
2023-03-29T05:56:17.108Z,4.60
2023-03-29T06:00:24.151Z,4.50
2023-03-29T06:04:26.238Z,4.43
2023-03-29T06:08:29.122Z,4.30
2023-03-29T06:12:30.953Z,4.70
2023-03-29T06:16:32.513Z,4.80
2023-03-29T06:20:34.037Z,4.70
2023-03-29T06:24:35.472Z,4.90
2023-03-29T06:28:36.844Z,4.80
2023-03-29T06:32:38.238Z,5.53
2023-03-29T06:36:42.262Z,5.17
2023-03-29T06:40:44.620Z,5.10
2023-03-29T06:44:46.856Z,4.50
2023-03-29T06:48:48.377Z,4.10
2023-03-29T06:52:50.480Z,4.10
2023-03-29T06:56:52.454Z,4.97
2023-03-29T07:00:53.871Z,4.00
2023-03-29T07:04:56.052Z,4.40
2023-03-29T07:08:59.753Z,4.60
2023-03-29T07:13:01.929Z,4.70
2023-03-29T07:17:04.085Z,4.20
2023-03-29T07:21:06.425Z,4.40
2023-03-29T07:25:12.257Z,4.17
2023-03-29T07:29:13.607Z,4.30
2023-03-29T07:33:15.350Z,4.60
2023-03-29T07:37:17.118Z,4.10
2023-03-29T07:41:18.448Z,4.83
2023-03-29T07:45:26.606Z,4.23
2023-03-29T07:49:29.159Z,4.73
2023-03-29T07:53:30.535Z,4.50
2023-03-29T07:57:32.077Z,4.40
2023-03-29T08:01:34.009Z,4.70
2023-03-29T08:05:41.510Z,4.10
2023-03-29T08:09:43.450Z,3.90
2023-03-29T08:13:44.790Z,4.50
2023-03-29T08:17:46.341Z,4.00
2023-03-29T08:21:48.454Z,4.37
2023-03-29T08:25:49.743Z,4.27
2023-03-29T08:29:51.663Z,4.00
2023-03-29T08:33:53.226Z,4.03
2023-03-29T08:37:54.604Z,4.20
2023-03-29T08:42:31.198Z,4.43
2023-03-29T08:46:42.317Z,4.43
2023-03-29T08:50:49.904Z,4.33
2023-03-29T08:54:55.938Z,4.47
2023-03-29T08:58:57.932Z,4.23
2023-03-29T09:03:02.358Z,3.87
2023-03-29T09:07:08.837Z,4.33
2023-03-29T09:11:26.534Z,4.00
2023-03-29T09:15:34.278Z,4.40
2023-03-29T09:19:46.786Z,4.70
2023-03-29T09:24:16.004Z,4.10
2023-03-29T09:28:31.018Z,4.97
2023-03-29T09:32:42.907Z,5.13
2023-03-29T09:37:03.030Z,4.77
2023-03-29T09:41:22.701Z,4.57
2023-03-29T09:45:24.216Z,4.20
2023-03-29T09:49:33.035Z,4.73
2023-03-29T09:53:34.595Z,4.57
2023-03-29T09:57:36.053Z,4.30
2023-03-29T10:01:41.356Z,4.30
2023-03-29T10:05:46.761Z,4.70
2023-03-29T10:09:50.993Z,4.53
2023-03-29T10:13:57.531Z,4.40
2023-03-29T10:18:10.093Z,4.87
2023-03-29T10:22:18.957Z,4.40
2023-03-29T10:26:32.513Z,4.30
2023-03-29T10:30:39.001Z,3.77
2023-03-29T10:34:41.469Z,4.30
2023-03-29T10:38:44.607Z,3.87
2023-03-29T10:42:52.064Z,4.50
2023-03-29T10:46:53.648Z,4.40
2023-03-29T10:51:00.194Z,4.30
2023-03-29T10:55:02.611Z,4.07
2023-03-29T10:59:27.296Z,3.80
2023-03-29T11:03:28.734Z,4.20
2023-03-29T11:07:41.385Z,4.00
2023-03-29T11:12:12.165Z,3.77
2023-03-29T11:16:37.949Z,4.40
2023-03-29T11:20:48.724Z,3.90
2023-03-29T11:25:13.829Z,4.83
2023-03-29T11:29:29.451Z,5.33
2023-03-29T11:33:51.372Z,4.33
2023-03-29T11:38:05.525Z,3.90
2023-03-29T11:42:16.446Z,4.10
2023-03-29T11:46:38.822Z,3.60
2023-03-29T11:50:50.508Z,5.20
2023-03-29T11:55:16.834Z,4.13
2023-03-29T11:59:28.978Z,3.90
2023-03-29T12:03:49.079Z,3.50
2023-03-29T12:08:01.036Z,4.10
2023-03-29T12:12:09.870Z,3.78
2023-03-29T12:16:22.000Z,3.35
2023-03-29T12:20:31.318Z,3.28
2023-03-29T12:24:35.425Z,3.95
2023-03-29T12:29:08.307Z,3.40
2023-03-29T12:33:32.333Z,3.03
2023-03-29T12:37:47.039Z,3.70
2023-03-29T12:41:54.140Z,3.00
2023-03-29T12:46:05.977Z,3.80
2023-03-29T12:50:28.404Z,2.60
2023-03-29T12:54:39.388Z,4.78
2023-03-29T12:58:54.014Z,2.83
2023-03-29T13:03:03.930Z,2.88
2023-03-29T13:07:27.717Z,3.20
2023-03-29T13:11:35.471Z,3.30
2023-03-29T13:15:37.431Z,4.40
2023-03-29T13:19:58.142Z,3.97
2023-03-29T13:24:19.709Z,3.70
2023-03-29T13:28:25.462Z,3.75
2023-03-29T13:32:54.679Z,3.80
2023-03-29T13:37:34.278Z,3.00
2023-03-29T13:41:38.598Z,3.97
2023-03-29T13:45:40.450Z,3.25
2023-03-29T13:49:45.423Z,3.58
2023-03-29T13:54:10.622Z,3.10
2023-03-29T13:58:23.016Z,3.40
2023-03-29T14:02:37.643Z,3.67
2023-03-29T14:06:43.446Z,4.10
2023-03-29T14:10:45.825Z,2.67
2023-03-29T14:14:58.293Z,2.53
2023-03-29T14:19:04.225Z,3.08
2023-03-29T14:23:16.209Z,3.75
2023-03-29T14:27:19.102Z,3.28
2023-03-29T14:31:26.287Z,5.38
2023-03-29T14:35:31.428Z,3.55
2023-03-29T14:39:34.631Z,3.33
2023-03-29T14:43:36.086Z,3.15
2023-03-29T14:47:40.730Z,3.00
2023-03-29T14:51:42.787Z,3.30
2023-03-29T14:55:46.710Z,3.60
2023-03-29T15:00:00.274Z,3.45
2023-03-29T15:04:07.934Z,5.30
2023-03-29T15:08:22.711Z,4.68
2023-03-29T15:12:24.961Z,4.00
2023-03-29T15:16:30.357Z,5.35
2023-03-29T15:20:34.688Z,3.70
2023-03-29T15:24:44.462Z,2.90
2023-03-29T15:28:55.517Z,2.80
2023-03-29T15:32:57.010Z,2.88
2023-03-29T15:36:59.714Z,2.72
2023-03-29T15:41:01.533Z,2.88
2023-03-29T15:45:06.181Z,3.00
2023-03-29T15:49:11.153Z,3.17
2023-03-29T15:53:15.414Z,3.13
2023-03-29T15:57:18.140Z,3.08
2023-03-29T16:01:35.607Z,3.30
2023-03-29T16:05:38.135Z,3.15
2023-03-29T16:09:39.435Z,2.75
2023-03-29T16:13:40.753Z,2.90
2023-03-29T16:17:42.164Z,3.03
2023-03-29T16:21:44.922Z,3.10
2023-03-29T16:25:46.407Z,3.67
2023-03-29T16:29:48.056Z,3.30
2023-03-29T16:33:49.469Z,3.00
2023-03-29T16:37:50.894Z,2.80
2023-03-29T16:41:52.224Z,3.17
2023-03-29T16:45:53.593Z,2.80
2023-03-29T16:49:54.991Z,3.17
2023-03-29T16:53:56.785Z,3.28
2023-03-29T16:57:58.293Z,3.33
2023-03-29T17:02:00.068Z,3.70
2023-03-29T17:06:02.335Z,2.53
2023-03-29T17:10:06.994Z,2.87
2023-03-29T17:14:08.360Z,2.90
2023-03-29T17:18:09.818Z,2.97
2023-03-29T17:22:11.245Z,2.58
2023-03-29T17:26:12.997Z,3.27
2023-03-29T17:30:14.796Z,3.27
2023-03-29T17:34:17.388Z,3.57
2023-03-29T17:38:19.358Z,3.10
2023-03-29T17:42:20.768Z,2.50
2023-03-29T17:46:22.845Z,2.73
2023-03-29T17:50:24.791Z,3.30
2023-03-29T17:54:26.172Z,3.10
2023-03-29T17:58:27.545Z,3.23
2023-03-29T18:02:28.925Z,2.80
2023-03-29T18:06:30.701Z,2.57
2023-03-29T18:10:32.533Z,3.13
2023-03-29T18:14:34.957Z,3.07
2023-03-29T18:18:37.360Z,3.13
2023-03-29T18:22:40.072Z,2.77
2023-03-29T18:26:41.453Z,3.93
2023-03-29T18:30:42.874Z,4.07
2023-03-29T18:34:44.273Z,2.93
2023-03-29T18:38:45.928Z,3.37
2023-03-29T18:42:47.269Z,3.10
2023-03-29T18:46:48.612Z,2.97
2023-03-29T18:50:51.269Z,3.07
2023-03-29T18:54:52.611Z,3.50
2023-03-29T18:58:54.559Z,3.20
2023-03-29T19:02:56.338Z,2.73
2023-03-29T19:06:59.718Z,2.97
2023-03-29T19:11:03.308Z,3.70
2023-03-29T19:15:05.292Z,4.20
2023-03-29T19:19:07.059Z,2.90
2023-03-29T19:23:08.413Z,2.90
2023-03-29T19:27:12.464Z,3.50
2023-03-29T19:31:14.144Z,2.93
2023-03-29T19:35:16.185Z,3.33
2023-03-29T19:39:17.749Z,2.73
2023-03-29T19:43:20.704Z,3.87
2023-03-29T19:47:22.068Z,3.00
2023-03-29T19:51:23.592Z,3.13
2023-03-29T19:55:25.398Z,4.17
2023-03-29T19:59:27.589Z,3.80
2023-03-29T20:03:28.939Z,3.23
2023-03-29T20:07:30.510Z,3.73
2023-03-29T20:11:31.842Z,3.57
2023-03-29T20:15:33.545Z,4.13
2023-03-29T20:19:36.642Z,3.30
2023-03-29T20:23:38.256Z,3.27
2023-03-29T20:27:40.884Z,4.17
2023-03-29T20:31:42.497Z,4.40
2023-03-29T20:35:45.290Z,4.73
2023-03-29T20:39:46.768Z,3.80
2023-03-29T20:43:48.434Z,5.77
2023-03-29T20:48:07.692Z,4.67
2023-03-29T20:52:18.802Z,5.73
2023-03-29T20:56:20.747Z,6.63
2023-03-29T21:00:22.444Z,5.43
2023-03-29T21:04:24.752Z,5.10
2023-03-29T21:08:28.596Z,4.10
2023-03-29T21:12:29.996Z,6.43
2023-03-29T21:16:34.102Z,6.03
2023-03-29T21:20:37.552Z,4.67
2023-03-29T21:24:39.328Z,5.23
2023-03-29T21:28:42.270Z,5.47
2023-03-29T21:32:43.746Z,4.03
2023-03-29T21:36:45.147Z,4.33
2023-03-29T21:40:46.510Z,4.80
2023-03-29T21:44:47.913Z,4.17
2023-03-29T21:48:49.303Z,4.93
2023-03-29T21:52:50.775Z,7.67
2023-03-29T21:56:52.309Z,5.53
2023-03-29T22:00:55.669Z,6.30
2023-03-29T22:04:57.141Z,4.50
2023-03-29T22:09:00.709Z,4.50
2023-03-29T22:13:03.167Z,4.07
2023-03-29T22:17:08.260Z,3.90
2023-03-29T22:21:14.374Z,3.63
2023-03-29T22:25:19.546Z,4.70
2023-03-29T22:29:20.981Z,5.50
2023-03-29T22:33:22.491Z,4.17
2023-03-29T22:37:23.961Z,4.87
2023-03-29T22:41:27.569Z,7.20
2023-03-29T22:45:28.925Z,4.87
2023-03-29T22:49:30.514Z,7.97
2023-03-29T22:53:32.924Z,5.27
2023-03-29T22:57:34.199Z,4.20
2023-03-29T23:01:35.693Z,5.77
2023-03-29T23:05:37.903Z,4.60
2023-03-29T23:09:39.399Z,5.70
2023-03-29T23:13:40.938Z,8.90
2023-03-29T23:17:42.515Z,3.93
2023-03-29T23:21:43.885Z,6.60
2023-03-29T23:25:47.433Z,3.20
2023-03-29T23:29:48.732Z,3.10
2023-03-29T23:33:50.441Z,2.83
2023-03-29T23:37:51.867Z,3.33
2023-03-29T23:41:53.262Z,6.00
2023-03-29T23:46:01.654Z,2.77
2023-03-29T23:50:03.769Z,3.27
2023-03-29T23:54:05.295Z,3.30
2023-03-29T23:58:07.114Z,3.43
